sensor_id;sensor_type;location;lat;lon;timestamp;pressure;altitude;pressure_sealevel;temperature;humidity
49063;BME280;34876;51.464;-0.150;2024-02-26T00:01:36;99557.49;;;12.33;53.99
49063;BME280;34876;51.464;-0.150;2024-02-26T00:04:06;99559.76;;;12.28;53.83
49063;BME280;34876;51.464;-0.150;2024-02-26T00:06:36;99559.09;;;12.19;54.09
49063;BME280;34876;51.464;-0.150;2024-02-26T00:09:10;99551.64;;;12.43;53.19
49063;BME280;34876;51.464;-0.150;2024-02-26T00:11:41;99563.51;;;12.12;54.04
49063;BME280;34876;51.464;-0.150;2024-02-26T00:14:11;99565.33;;;12.42;53.20
49063;BME280;34876;51.464;-0.150;2024-02-26T00:16:41;99562.27;;;12.51;53.04
49063;BME280;34876;51.464;-0.150;2024-02-26T00:19:10;99576.35;;;13.23;50.96
49063;BME280;34876;51.464;-0.150;2024-02-26T00:21:45;99568.12;;;12.36;53.29
49063;BME280;34876;51.464;-0.150;2024-02-26T00:25:41;99569.64;;;14.30;47.88
49063;BME280;34876;51.464;-0.150;2024-02-26T00:28:10;99576.24;;;12.88;50.45
49063;BME280;34876;51.464;-0.150;2024-02-26T00:30:39;99581.69;;;13.21;50.57
49063;BME280;34876;51.464;-0.150;2024-02-26T00:33:09;99578.63;;;14.38;47.53
49063;BME280;34876;51.464;-0.150;2024-02-26T00:35:39;99594.49;;;12.19;53.01
49063;BME280;34876;51.464;-0.150;2024-02-26T00:38:07;99601.16;;;11.92;53.74
49063;BME280;34876;51.464;-0.150;2024-02-26T00:40:37;99584.99;;;12.54;52.35
49063;BME280;34876;51.464;-0.150;2024-02-26T00:43:07;99611.80;;;10.58;58.13
49063;BME280;34876;51.464;-0.150;2024-02-26T00:45:36;99594.63;;;13.09;50.83
49063;BME280;34876;51.464;-0.150;2024-02-26T00:48:07;99607.38;;;13.32;50.17
49063;BME280;34876;51.464;-0.150;2024-02-26T00:50:35;99604.15;;;13.24;49.91
49063;BME280;34876;51.464;-0.150;2024-02-26T00:53:07;99610.80;;;11.42;54.97
49063;BME280;34876;51.464;-0.150;2024-02-26T00:55:36;99615.54;;;11.99;53.36
49063;BME280;34876;51.464;-0.150;2024-02-26T00:58:05;99617.07;;;12.39;51.43
49063;BME280;34876;51.464;-0.150;2024-02-26T01:03:33;99627.89;;;12.75;51.36
49063;BME280;34876;51.464;-0.150;2024-02-26T01:06:02;99626.67;;;12.82;50.76
49063;BME280;34876;51.464;-0.150;2024-02-26T01:08:32;99628.89;;;13.45;49.81
49063;BME280;34876;51.464;-0.150;2024-02-26T01:11:01;99649.96;;;11.63;53.42
49063;BME280;34876;51.464;-0.150;2024-02-26T01:13:36;99647.18;;;11.85;53.49
49063;BME280;34876;51.464;-0.150;2024-02-26T01:16:06;99651.16;;;12.32;52.55
49063;BME280;34876;51.464;-0.150;2024-02-26T01:18:38;99665.69;;;12.56;50.97
49063;BME280;34876;51.464;-0.150;2024-02-26T01:21:08;99669.90;;;11.79;53.76
49063;BME280;34876;51.464;-0.150;2024-02-26T01:23:46;99655.06;;;12.59;51.40
49063;BME280;34876;51.464;-0.150;2024-02-26T01:26:16;99673.19;;;12.20;51.59
49063;BME280;34876;51.464;-0.150;2024-02-26T01:28:48;99671.69;;;13.22;49.93
49063;BME280;34876;51.464;-0.150;2024-02-26T01:31:18;99676.66;;;12.04;53.28
49063;BME280;34876;51.464;-0.150;2024-02-26T01:33:46;99690.37;;;11.50;54.04
49063;BME280;34876;51.464;-0.150;2024-02-26T01:36:16;99683.06;;;11.89;54.11
49063;BME280;34876;51.464;-0.150;2024-02-26T01:38:45;99729.64;;;10.07;57.41
49063;BME280;34876;51.464;-0.150;2024-02-26T01:41:15;99696.17;;;11.52;54.98
49063;BME280;34876;51.464;-0.150;2024-02-26T01:43:46;99693.00;;;12.86;51.26
49063;BME280;34876;51.464;-0.150;2024-02-26T01:46:16;99706.30;;;12.19;52.29
49063;BME280;34876;51.464;-0.150;2024-02-26T01:48:47;99712.72;;;11.63;54.04
49063;BME280;34876;51.464;-0.150;2024-02-26T01:51:20;99713.12;;;12.89;50.95
49063;BME280;34876;51.464;-0.150;2024-02-26T01:53:49;99749.08;;;12.39;52.12
49063;BME280;34876;51.464;-0.150;2024-02-26T01:56:21;99738.10;;;12.05;52.04
49063;BME280;34876;51.464;-0.150;2024-02-26T01:58:52;99732.15;;;12.94;50.71
49063;BME280;34876;51.464;-0.150;2024-02-26T02:01:22;99733.07;;;12.00;53.30
49063;BME280;34876;51.464;-0.150;2024-02-26T02:03:53;99737.52;;;12.52;51.74
49063;BME280;34876;51.464;-0.150;2024-02-26T02:06:22;99746.45;;;11.83;53.21
49063;BME280;34876;51.464;-0.150;2024-02-26T02:08:51;99759.44;;;11.78;53.85
49063;BME280;34876;51.464;-0.150;2024-02-26T02:11:20;99765.44;;;12.61;51.29
49063;BME280;34876;51.464;-0.150;2024-02-26T02:13:49;99747.32;;;13.19;50.11
49063;BME280;34876;51.464;-0.150;2024-02-26T02:16:19;99760.67;;;13.00;50.53
49063;BME280;34876;51.464;-0.150;2024-02-26T02:18:49;99764.01;;;12.43;50.48
49063;BME280;34876;51.464;-0.150;2024-02-26T02:21:18;99764.98;;;13.67;48.18
49063;BME280;34876;51.464;-0.150;2024-02-26T02:23:50;99775.91;;;13.50;48.61
49063;BME280;34876;51.464;-0.150;2024-02-26T02:26:20;99775.37;;;13.24;49.39
49063;BME280;34876;51.464;-0.150;2024-02-26T02:28:51;99791.13;;;12.28;51.23
49063;BME280;34876;51.464;-0.150;2024-02-26T02:31:19;99795.15;;;12.05;51.12
49063;BME280;34876;51.464;-0.150;2024-02-26T02:33:54;99797.94;;;12.98;49.66
49063;BME280;34876;51.464;-0.150;2024-02-26T02:36:34;99789.61;;;13.67;47.41
49063;BME280;34876;51.464;-0.150;2024-02-26T02:39:03;99808.72;;;12.79;49.20
49063;BME280;34876;51.464;-0.150;2024-02-26T02:41:44;99804.31;;;12.21;51.72
49063;BME280;34876;51.464;-0.150;2024-02-26T02:44:19;99811.66;;;11.81;52.25
49063;BME280;34876;51.464;-0.150;2024-02-26T02:46:57;99821.57;;;11.19;53.00
49063;BME280;34876;51.464;-0.150;2024-02-26T02:49:27;99828.10;;;10.85;55.05
49063;BME280;34876;51.464;-0.150;2024-02-26T02:51:56;99826.56;;;12.15;52.63
49063;BME280;34876;51.464;-0.150;2024-02-26T02:54:36;99831.71;;;11.20;54.48
49063;BME280;34876;51.464;-0.150;2024-02-26T02:57:05;99838.84;;;11.87;51.75
49063;BME280;34876;51.464;-0.150;2024-02-26T02:59:34;99872.10;;;11.44;52.60
49063;BME280;34876;51.464;-0.150;2024-02-26T03:02:05;99855.06;;;11.58;51.92
49063;BME280;34876;51.464;-0.150;2024-02-26T03:04:34;99848.07;;;12.94;49.15
49063;BME280;34876;51.464;-0.150;2024-02-26T03:07:05;99865.66;;;10.42;56.37
49063;BME280;34876;51.464;-0.150;2024-02-26T03:09:34;99868.20;;;13.17;49.22
49063;BME280;34876;51.464;-0.150;2024-02-26T03:12:03;99864.81;;;12.04;51.69
49063;BME280;34876;51.464;-0.150;2024-02-26T03:14:32;99864.16;;;12.41;50.07
49063;BME280;34876;51.464;-0.150;2024-02-26T03:17:02;99867.41;;;12.94;49.69
49063;BME280;34876;51.464;-0.150;2024-02-26T03:19:31;99881.53;;;11.11;53.25
49063;BME280;34876;51.464;-0.150;2024-02-26T03:22:00;99887.43;;;12.52;48.91
49063;BME280;34876;51.464;-0.150;2024-02-26T03:24:31;99881.85;;;12.06;51.64
49063;BME280;34876;51.464;-0.150;2024-02-26T03:26:59;99891.89;;;13.00;49.31
49063;BME280;34876;51.464;-0.150;2024-02-26T03:29:29;99917.93;;;10.00;55.57
49063;BME280;34876;51.464;-0.150;2024-02-26T03:31:58;99910.57;;;12.37;50.18
49063;BME280;34876;51.464;-0.150;2024-02-26T03:34:28;99905.29;;;12.65;48.76
49063;BME280;34876;51.464;-0.150;2024-02-26T03:36:57;99923.30;;;11.78;51.44
49063;BME280;34876;51.464;-0.150;2024-02-26T03:39:26;99925.04;;;13.53;47.95
49063;BME280;34876;51.464;-0.150;2024-02-26T03:41:55;99946.46;;;11.89;51.93
49063;BME280;34876;51.464;-0.150;2024-02-26T03:44:25;99928.79;;;12.85;48.97
49063;BME280;34876;51.464;-0.150;2024-02-26T03:46:54;99937.05;;;12.32;50.59
49063;BME280;34876;51.464;-0.150;2024-02-26T03:49:23;99938.88;;;12.31;49.98
49063;BME280;34876;51.464;-0.150;2024-02-26T03:51:53;99937.97;;;12.39;49.79
49063;BME280;34876;51.464;-0.150;2024-02-26T03:54:22;99940.11;;;13.04;48.95
49063;BME280;34876;51.464;-0.150;2024-02-26T03:56:51;99953.16;;;12.42;49.52
49063;BME280;34876;51.464;-0.150;2024-02-26T03:59:21;99966.95;;;12.70;49.77
49063;BME280;34876;51.464;-0.150;2024-02-26T04:01:50;99968.49;;;11.28;51.50
49063;BME280;34876;51.464;-0.150;2024-02-26T04:04:19;99968.08;;;11.51;51.77
49063;BME280;34876;51.464;-0.150;2024-02-26T04:06:49;99978.11;;;12.20;49.74
49063;BME280;34876;51.464;-0.150;2024-02-26T04:09:18;99991.86;;;10.99;51.80
49063;BME280;34876;51.464;-0.150;2024-02-26T04:11:47;100005.25;;;11.01;52.08
49063;BME280;34876;51.464;-0.150;2024-02-26T04:14:16;99996.48;;;11.08;52.18
49063;BME280;34876;51.464;-0.150;2024-02-26T04:16:46;100004.38;;;11.75;51.70
49063;BME280;34876;51.464;-0.150;2024-02-26T04:19:14;99994.68;;;13.40;47.69
49063;BME280;34876;51.464;-0.150;2024-02-26T04:21:43;100012.48;;;11.34;52.48
49063;BME280;34876;51.464;-0.150;2024-02-26T04:24:12;100015.80;;;11.15;51.39
49063;BME280;34876;51.464;-0.150;2024-02-26T04:26:41;100030.53;;;12.35;48.79
49063;BME280;34876;51.464;-0.150;2024-02-26T04:29:11;100020.70;;;12.99;47.83
49063;BME280;34876;51.464;-0.150;2024-02-26T04:31:45;100027.92;;;11.18;50.86
49063;BME280;34876;51.464;-0.150;2024-02-26T04:34:14;100040.08;;;11.38;50.30
49063;BME280;34876;51.464;-0.150;2024-02-26T04:36:43;100032.73;;;12.91;48.09
49063;BME280;34876;51.464;-0.150;2024-02-26T04:39:13;100039.98;;;13.06;46.67
49063;BME280;34876;51.464;-0.150;2024-02-26T04:41:43;100063.63;;;12.97;47.16
49063;BME280;34876;51.464;-0.150;2024-02-26T04:44:13;100051.79;;;13.13;48.06
49063;BME280;34876;51.464;-0.150;2024-02-26T04:46:42;100067.50;;;12.01;49.74
49063;BME280;34876;51.464;-0.150;2024-02-26T04:49:11;100058.25;;;11.33;49.96
49063;BME280;34876;51.464;-0.150;2024-02-26T04:51:40;100073.10;;;12.35;49.67
49063;BME280;34876;51.464;-0.150;2024-02-26T04:54:09;100083.74;;;12.89;47.24
49063;BME280;34876;51.464;-0.150;2024-02-26T04:56:38;100088.01;;;11.59;50.63
49063;BME280;34876;51.464;-0.150;2024-02-26T04:59:07;100090.46;;;12.91;48.17
49063;BME280;34876;51.464;-0.150;2024-02-26T05:01:37;100087.03;;;12.98;45.06
49063;BME280;34876;51.464;-0.150;2024-02-26T05:04:06;100107.94;;;12.70;47.71
49063;BME280;34876;51.464;-0.150;2024-02-26T05:06:36;100117.66;;;12.56;46.72
49063;BME280;34876;51.464;-0.150;2024-02-26T05:09:05;100113.78;;;11.34;48.94
49063;BME280;34876;51.464;-0.150;2024-02-26T05:11:34;100133.11;;;12.00;48.99
49063;BME280;34876;51.464;-0.150;2024-02-26T05:14:03;100123.36;;;12.15;49.49
49063;BME280;34876;51.464;-0.150;2024-02-26T05:16:33;100122.17;;;13.36;46.64
49063;BME280;34876;51.464;-0.150;2024-02-26T05:19:02;100145.26;;;13.33;45.01
49063;BME280;34876;51.464;-0.150;2024-02-26T05:21:31;100149.57;;;11.00;50.71
49063;BME280;34876;51.464;-0.150;2024-02-26T05:24:01;100156.67;;;12.19;48.13
49063;BME280;34876;51.464;-0.150;2024-02-26T05:26:29;100175.79;;;12.57;48.68
49063;BME280;34876;51.464;-0.150;2024-02-26T05:28:59;100179.18;;;9.98;53.91
49063;BME280;34876;51.464;-0.150;2024-02-26T05:31:33;100199.53;;;11.31;50.05
49063;BME280;34876;51.464;-0.150;2024-02-26T05:34:03;100178.51;;;11.32;50.55
49063;BME280;34876;51.464;-0.150;2024-02-26T05:36:32;100186.36;;;12.38;49.51
49063;BME280;34876;51.464;-0.150;2024-02-26T05:39:02;100219.39;;;10.29;52.01
49063;BME280;34876;51.464;-0.150;2024-02-26T05:41:37;100204.25;;;11.33;50.71
49063;BME280;34876;51.464;-0.150;2024-02-26T05:44:11;100207.24;;;13.02;47.03
49063;BME280;34876;51.464;-0.150;2024-02-26T05:46:41;100221.90;;;11.69;48.21
49063;BME280;34876;51.464;-0.150;2024-02-26T05:49:09;100226.01;;;12.23;48.71
49063;BME280;34876;51.464;-0.150;2024-02-26T05:51:43;100232.11;;;12.79;44.90
49063;BME280;34876;51.464;-0.150;2024-02-26T05:54:13;100228.09;;;12.52;48.12
49063;BME280;34876;51.464;-0.150;2024-02-26T05:56:42;100238.83;;;12.37;45.35
49063;BME280;34876;51.464;-0.150;2024-02-26T05:59:11;100250.19;;;12.83;45.99
49063;BME280;34876;51.464;-0.150;2024-02-26T06:01:45;100263.19;;;12.14;46.02
49063;BME280;34876;51.464;-0.150;2024-02-26T06:04:20;100268.20;;;11.79;48.61
49063;BME280;34876;51.464;-0.150;2024-02-26T06:06:54;100274.10;;;12.77;45.42
49063;BME280;34876;51.464;-0.150;2024-02-26T06:09:24;100271.14;;;11.92;48.13
49063;BME280;34876;51.464;-0.150;2024-02-26T06:11:57;100291.61;;;11.59;48.82
49063;BME280;34876;51.464;-0.150;2024-02-26T06:14:32;100302.59;;;10.77;49.50
49063;BME280;34876;51.464;-0.150;2024-02-26T06:17:01;100294.58;;;12.24;45.33
49063;BME280;34876;51.464;-0.150;2024-02-26T06:19:36;100306.90;;;11.31;49.65
49063;BME280;34876;51.464;-0.150;2024-02-26T06:22:05;100309.88;;;12.36;45.62
49063;BME280;34876;51.464;-0.150;2024-02-26T06:24:34;100308.43;;;14.04;44.47
49063;BME280;34876;51.464;-0.150;2024-02-26T06:27:03;100320.27;;;11.23;47.47
49063;BME280;34876;51.464;-0.150;2024-02-26T06:29:33;100338.71;;;9.94;50.18
49063;BME280;34876;51.464;-0.150;2024-02-26T06:32:02;100338.79;;;10.42;49.08
49063;BME280;34876;51.464;-0.150;2024-02-26T06:34:31;100335.61;;;11.84;48.23
49063;BME280;34876;51.464;-0.150;2024-02-26T06:37:00;100344.18;;;11.28;47.90
49063;BME280;34876;51.464;-0.150;2024-02-26T06:39:29;100357.29;;;11.15;48.45
49063;BME280;34876;51.464;-0.150;2024-02-26T06:41:59;100375.43;;;10.31;50.70
49063;BME280;34876;51.464;-0.150;2024-02-26T06:44:28;100385.75;;;11.85;45.60
49063;BME280;34876;51.464;-0.150;2024-02-26T06:46:57;100380.31;;;11.46;48.30
49063;BME280;34876;51.464;-0.150;2024-02-26T06:49:27;100382.09;;;12.00;45.08
49063;BME280;34876;51.464;-0.150;2024-02-26T06:51:56;100397.53;;;8.64;53.16
49063;BME280;34876;51.464;-0.150;2024-02-26T06:54:25;100398.60;;;11.37;49.63
49063;BME280;34876;51.464;-0.150;2024-02-26T06:56:54;100402.06;;;12.06;48.00
49063;BME280;34876;51.464;-0.150;2024-02-26T06:59:23;100427.24;;;10.40;49.40
49063;BME280;34876;51.464;-0.150;2024-02-26T07:01:53;100421.27;;;9.79;49.27
49063;BME280;34876;51.464;-0.150;2024-02-26T07:04:22;100446.27;;;10.19;48.47
49063;BME280;34876;51.464;-0.150;2024-02-26T07:06:51;100426.22;;;11.88;45.20
49063;BME280;34876;51.464;-0.150;2024-02-26T07:09:19;100419.86;;;12.75;44.82
49063;BME280;34876;51.464;-0.150;2024-02-26T07:11:49;100430.61;;;11.02;46.59
49063;BME280;34876;51.464;-0.150;2024-02-26T07:14:22;100458.29;;;11.38;44.59
49063;BME280;34876;51.464;-0.150;2024-02-26T07:16:51;100437.94;;;11.79;48.30
49063;BME280;34876;51.464;-0.150;2024-02-26T07:19:21;100437.12;;;11.25;49.83
49063;BME280;34876;51.464;-0.150;2024-02-26T07:21:56;100457.79;;;11.99;46.47
49063;BME280;34876;51.464;-0.150;2024-02-26T07:24:35;100450.49;;;11.76;48.13
49063;BME280;34876;51.464;-0.150;2024-02-26T07:27:05;100472.46;;;11.75;45.59
49063;BME280;34876;51.464;-0.150;2024-02-26T07:29:34;100478.26;;;10.79;45.99
49063;BME280;34876;51.464;-0.150;2024-02-26T07:32:08;100483.41;;;11.74;48.76
49063;BME280;34876;51.464;-0.150;2024-02-26T07:34:42;100485.01;;;9.90;48.53
49063;BME280;34876;51.464;-0.150;2024-02-26T07:37:13;100495.74;;;11.73;46.02
49063;BME280;34876;51.464;-0.150;2024-02-26T07:39:42;100496.13;;;11.87;45.15
49063;BME280;34876;51.464;-0.150;2024-02-26T07:42:16;100507.02;;;11.27;45.99
49063;BME280;34876;51.464;-0.150;2024-02-26T07:44:45;100509.06;;;10.31;47.93
49063;BME280;34876;51.464;-0.150;2024-02-26T07:47:14;100522.77;;;11.39;46.89
49063;BME280;34876;51.464;-0.150;2024-02-26T07:49:44;100517.29;;;12.86;44.79
49063;BME280;34876;51.464;-0.150;2024-02-26T07:52:18;100518.24;;;11.37;44.14
49063;BME280;34876;51.464;-0.150;2024-02-26T07:54:51;100524.00;;;12.31;45.94
49063;BME280;34876;51.464;-0.150;2024-02-26T07:57:31;100534.63;;;12.43;42.73
49063;BME280;34876;51.464;-0.150;2024-02-26T08:00:04;100542.62;;;11.34;48.07
49063;BME280;34876;51.464;-0.150;2024-02-26T08:02:40;100537.78;;;13.26;41.74
49063;BME280;34876;51.464;-0.150;2024-02-26T08:05:15;100539.32;;;11.81;44.94
49063;BME280;34876;51.464;-0.150;2024-02-26T08:07:49;100550.02;;;12.10;43.23
49063;BME280;34876;51.464;-0.150;2024-02-26T08:10:18;100542.62;;;12.54;45.87
49063;BME280;34876;51.464;-0.150;2024-02-26T08:12:52;100551.71;;;12.53;42.53
49063;BME280;34876;51.464;-0.150;2024-02-26T08:15:20;100580.35;;;11.22;44.27
49063;BME280;34876;51.464;-0.150;2024-02-26T08:17:50;100565.97;;;12.11;42.63
49063;BME280;34876;51.464;-0.150;2024-02-26T08:20:19;100582.95;;;10.47;47.03
49063;BME280;34876;51.464;-0.150;2024-02-26T08:22:54;100571.92;;;12.57;45.02
49063;BME280;34876;51.464;-0.150;2024-02-26T08:25:24;100578.50;;;13.24;41.34
49063;BME280;34876;51.464;-0.150;2024-02-26T08:27:54;100576.30;;;13.28;43.16
49063;BME280;34876;51.464;-0.150;2024-02-26T08:30:23;100588.84;;;13.43;43.10
49063;BME280;34876;51.464;-0.150;2024-02-26T08:32:57;100585.39;;;13.08;44.96
49063;BME280;34876;51.464;-0.150;2024-02-26T08:35:26;100594.37;;;12.34;44.70
49063;BME280;34876;51.464;-0.150;2024-02-26T08:37:55;100599.48;;;12.17;44.84
49063;BME280;34876;51.464;-0.150;2024-02-26T08:40:28;100599.38;;;13.07;45.06
49063;BME280;34876;51.464;-0.150;2024-02-26T08:43:01;100624.03;;;11.92;45.82
49063;BME280;34876;51.464;-0.150;2024-02-26T08:45:31;100618.68;;;12.77;42.83
49063;BME280;34876;51.464;-0.150;2024-02-26T08:47:59;100626.28;;;13.06;44.02
49063;BME280;34876;51.464;-0.150;2024-02-26T08:50:27;100628.22;;;12.16;46.19
49063;BME280;34876;51.464;-0.150;2024-02-26T08:53:06;100633.88;;;12.47;45.92
49063;BME280;34876;51.464;-0.150;2024-02-26T08:55:35;100639.31;;;12.81;44.44
49063;BME280;34876;51.464;-0.150;2024-02-26T08:58:05;100652.67;;;11.81;44.32
49063;BME280;34876;51.464;-0.150;2024-02-26T09:00:34;100655.72;;;12.09;44.68
49063;BME280;34876;51.464;-0.150;2024-02-26T09:03:09;100655.85;;;13.06;42.88
49063;BME280;34876;51.464;-0.150;2024-02-26T09:05:38;100669.62;;;11.57;45.24
49063;BME280;34876;51.464;-0.150;2024-02-26T09:08:07;100654.79;;;11.88;47.14
49063;BME280;34876;51.464;-0.150;2024-02-26T09:10:41;100651.70;;;12.57;44.61
49063;BME280;34876;51.464;-0.150;2024-02-26T09:13:16;100669.24;;;12.00;45.44
49063;BME280;34876;51.464;-0.150;2024-02-26T09:15:52;100664.51;;;12.86;45.44
49063;BME280;34876;51.464;-0.150;2024-02-26T09:18:20;100668.87;;;13.32;44.07
49063;BME280;34876;51.464;-0.150;2024-02-26T09:20:50;100678.15;;;12.77;41.96
49063;BME280;34876;51.464;-0.150;2024-02-26T09:23:24;100679.12;;;13.11;42.28
49063;BME280;34876;51.464;-0.150;2024-02-26T09:25:53;100683.79;;;13.17;42.97
49063;BME280;34876;51.464;-0.150;2024-02-26T09:28:22;100695.53;;;12.70;41.34
49063;BME280;34876;51.464;-0.150;2024-02-26T09:30:52;100716.06;;;13.12;43.29
49063;BME280;34876;51.464;-0.150;2024-02-26T09:33:26;100721.32;;;11.16;45.66
49063;BME280;34876;51.464;-0.150;2024-02-26T09:35:55;100724.20;;;12.08;43.74
49063;BME280;34876;51.464;-0.150;2024-02-26T09:38:26;100720.46;;;12.71;44.65
49063;BME280;34876;51.464;-0.150;2024-02-26T09:40:57;100717.31;;;13.91;42.58
49063;BME280;34876;51.464;-0.150;2024-02-26T09:43:38;100735.00;;;11.68;45.34
49063;BME280;34876;51.464;-0.150;2024-02-26T09:46:09;100747.83;;;12.68;42.66
49063;BME280;34876;51.464;-0.150;2024-02-26T09:48:40;100748.50;;;12.23;46.37
49063;BME280;34876;51.464;-0.150;2024-02-26T09:51:11;100758.61;;;12.58;44.48
49063;BME280;34876;51.464;-0.150;2024-02-26T09:53:47;100753.29;;;12.62;44.33
49063;BME280;34876;51.464;-0.150;2024-02-26T09:56:23;100756.40;;;13.08;43.82
49063;BME280;34876;51.464;-0.150;2024-02-26T09:58:54;100749.38;;;13.38;43.55
49063;BME280;34876;51.464;-0.150;2024-02-26T10:01:30;100784.56;;;13.13;42.07
49063;BME280;34876;51.464;-0.150;2024-02-26T10:04:05;100779.32;;;12.74;44.63
49063;BME280;34876;51.464;-0.150;2024-02-26T10:06:33;100774.38;;;13.61;42.40
49063;BME280;34876;51.464;-0.150;2024-02-26T10:09:04;100781.27;;;12.68;44.82
49063;BME280;34876;51.464;-0.150;2024-02-26T10:11:40;100782.16;;;12.05;44.86
49063;BME280;34876;51.464;-0.150;2024-02-26T10:14:08;100778.55;;;13.18;43.31
49063;BME280;34876;51.464;-0.150;2024-02-26T10:16:37;100793.58;;;12.88;43.95
49063;BME280;34876;51.464;-0.150;2024-02-26T10:19:06;100809.78;;;12.83;42.37
49063;BME280;34876;51.464;-0.150;2024-02-26T10:21:34;100829.94;;;12.64;43.47
49063;BME280;34876;51.464;-0.150;2024-02-26T10:24:14;100823.60;;;11.32;45.97
49063;BME280;34876;51.464;-0.150;2024-02-26T10:26:46;100815.08;;;13.52;41.99
49063;BME280;34876;51.464;-0.150;2024-02-26T10:29:14;100821.69;;;12.26;44.96
49063;BME280;34876;51.464;-0.150;2024-02-26T10:31:50;100832.46;;;12.02;44.14
49063;BME280;34876;51.464;-0.150;2024-02-26T10:34:25;100827.45;;;12.07;45.18
49063;BME280;34876;51.464;-0.150;2024-02-26T10:36:55;100839.20;;;12.81;42.51
49063;BME280;34876;51.464;-0.150;2024-02-26T10:39:24;100831.88;;;13.11;43.48
49063;BME280;34876;51.464;-0.150;2024-02-26T10:42:00;100840.32;;;12.84;43.87
49063;BME280;34876;51.464;-0.150;2024-02-26T10:44:31;100860.13;;;13.28;41.81
49063;BME280;34876;51.464;-0.150;2024-02-26T10:47:00;100855.63;;;12.75;43.59
49063;BME280;34876;51.464;-0.150;2024-02-26T10:49:31;100871.00;;;10.92;45.76
49063;BME280;34876;51.464;-0.150;2024-02-26T10:52:07;100856.31;;;11.93;45.93
49063;BME280;34876;51.464;-0.150;2024-02-26T10:54:39;100859.78;;;12.87;44.79
49063;BME280;34876;51.464;-0.150;2024-02-26T10:57:09;100862.74;;;12.82;41.45
49063;BME280;34876;51.464;-0.150;2024-02-26T10:59:39;100875.68;;;11.49;43.50
49063;BME280;34876;51.464;-0.150;2024-02-26T11:02:20;100898.28;;;11.47;44.75
49063;BME280;34876;51.464;-0.150;2024-02-26T11:04:55;100885.12;;;12.78;44.51
49063;BME280;34876;51.464;-0.150;2024-02-26T11:07:26;100894.29;;;12.32;43.51
49063;BME280;34876;51.464;-0.150;2024-02-26T11:09:57;100905.89;;;12.39;42.63
49063;BME280;34876;51.464;-0.150;2024-02-26T11:12:35;100906.87;;;11.01;48.06
49063;BME280;34876;51.464;-0.150;2024-02-26T11:15:09;100915.62;;;10.83;45.46
49063;BME280;34876;51.464;-0.150;2024-02-26T11:17:39;100916.72;;;12.17;45.54
49063;BME280;34876;51.464;-0.150;2024-02-26T11:20:10;100927.29;;;11.40;45.17
49063;BME280;34876;51.464;-0.150;2024-02-26T11:22:44;100943.04;;;11.76;45.54
49063;BME280;34876;51.464;-0.150;2024-02-26T11:25:19;100929.68;;;11.06;44.29
49063;BME280;34876;51.464;-0.150;2024-02-26T11:27:54;100926.64;;;11.16;44.26
49063;BME280;34876;51.464;-0.150;2024-02-26T11:30:35;100955.71;;;11.84;43.24
49063;BME280;34876;51.464;-0.150;2024-02-26T11:33:13;100945.46;;;11.42;44.49
49063;BME280;34876;51.464;-0.150;2024-02-26T11:35:44;100942.23;;;11.78;44.23
49063;BME280;34876;51.464;-0.150;2024-02-26T11:38:19;100958.58;;;11.30;45.36
49063;BME280;34876;51.464;-0.150;2024-02-26T11:40:50;100959.34;;;11.26;44.75
49063;BME280;34876;51.464;-0.150;2024-02-26T11:43:49;100962.33;;;11.53;44.47
49063;BME280;34876;51.464;-0.150;2024-02-26T11:46:28;100959.50;;;12.95;42.60
49063;BME280;34876;51.464;-0.150;2024-02-26T11:49:00;100959.44;;;12.91;43.21
49063;BME280;34876;51.464;-0.150;2024-02-26T11:51:35;100981.63;;;10.61;47.76
49063;BME280;34876;51.464;-0.150;2024-02-26T11:54:04;100973.46;;;12.03;45.36
49063;BME280;34876;51.464;-0.150;2024-02-26T11:56:34;100961.28;;;12.66;44.51
49063;BME280;34876;51.464;-0.150;2024-02-26T11:59:05;100989.61;;;11.39;46.73
49063;BME280;34876;51.464;-0.150;2024-02-26T12:01:50;100989.74;;;12.29;45.26
49063;BME280;34876;51.464;-0.150;2024-02-26T12:04:24;101003.60;;;12.14;45.37
49063;BME280;34876;51.464;-0.150;2024-02-26T12:06:56;101001.40;;;13.18;41.71
49063;BME280;34876;51.464;-0.150;2024-02-26T12:09:41;101015.05;;;10.57;46.61
49063;BME280;34876;51.464;-0.150;2024-02-26T12:12:18;101008.11;;;11.05;47.97
49063;BME280;34876;51.464;-0.150;2024-02-26T12:14:51;101000.13;;;12.33;45.01
49063;BME280;34876;51.464;-0.150;2024-02-26T12:17:21;101008.95;;;11.98;42.42
49063;BME280;34876;51.464;-0.150;2024-02-26T12:19:51;101038.71;;;11.70;44.23
49063;BME280;34876;51.464;-0.150;2024-02-26T12:22:27;101016.58;;;11.76;43.97
49063;BME280;34876;51.464;-0.150;2024-02-26T12:24:59;101019.47;;;11.56;43.73
49063;BME280;34876;51.464;-0.150;2024-02-26T12:27:29;101019.21;;;11.25;44.98
49063;BME280;34876;51.464;-0.150;2024-02-26T12:30:01;101023.27;;;12.89;42.32
49063;BME280;34876;51.464;-0.150;2024-02-26T12:32:36;101016.39;;;12.70;43.49
49063;BME280;34876;51.464;-0.150;2024-02-26T12:35:06;101017.00;;;13.03;43.06
49063;BME280;34876;51.464;-0.150;2024-02-26T12:37:36;101031.46;;;11.86;45.06
49063;BME280;34876;51.464;-0.150;2024-02-26T12:40:09;101030.29;;;13.49;42.37
49063;BME280;34876;51.464;-0.150;2024-02-26T12:42:38;101030.63;;;12.54;42.01
49063;BME280;34876;51.464;-0.150;2024-02-26T12:45:08;101056.79;;;11.47;43.27
49063;BME280;34876;51.464;-0.150;2024-02-26T12:47:44;101060.38;;;11.18;46.70
49063;BME280;34876;51.464;-0.150;2024-02-26T12:50:14;101073.21;;;10.71;44.65
49063;BME280;34876;51.464;-0.150;2024-02-26T12:52:45;101089.19;;;10.29;44.66
49063;BME280;34876;51.464;-0.150;2024-02-26T12:55:17;101064.39;;;11.61;43.80
49063;BME280;34876;51.464;-0.150;2024-02-26T12:57:47;101060.69;;;11.58;44.20
49063;BME280;34876;51.464;-0.150;2024-02-26T13:00:22;101065.67;;;12.33;42.34
49063;BME280;34876;51.464;-0.150;2024-02-26T13:02:53;101086.59;;;12.33;39.83
49063;BME280;34876;51.464;-0.150;2024-02-26T13:05:24;101070.05;;;12.51;39.15
49063;BME280;34876;51.464;-0.150;2024-02-26T13:07:55;101083.07;;;12.53;39.57